• Join FlightAware (Why Join?)
  • Login
  • US Flag 
06:24AM EDT


 

Airport Tracker/Info


-or-


 

Live Flight TrackerFlight Track Log ✈ N566UA ✈ 08-Apr-2013 ✈ KBOS - KSFO

Flight Track Log - Related Links

Times and Time Zones

All times are in EDT time to prevent confusion due to time zone crossing. See the N566UA flight status page for this flight to view local times or setup timezone preferences in your user account.

Time Position Orientation Groundspeed Altitude Reporting Facility
EDT Latitude Longitude Course Direction KTS MPH feet Rate Location/Type
03:42PM 42.3850 -70.8519 283° West 239 275 3,800  Level Boston Center
03:43PM 42.4278 -70.7806 51° Northeast 238 274 6,100 2,460 Climbing Boston Center
03:44PM 42.4989 -70.7842 358° North 215 247 8,800 2,400 Climbing Boston Center
03:45PM 42.6924 -71.0751 300° West  Level FlightAware Approximate
03:45PM 42.5500 -70.8647 311° West 230 265 10,900  Level Boston Center
03:46PM 42.7505 -71.2020 289° West  Level FlightAware Approximate
03:46PM 42.6056 -70.9592 309° West 286 329 12,900  Level Boston Center
03:46PM 42.6608 -71.0622 306° West 335 386 15,300 2,280 Climbing Boston Center
03:47PM 42.7773 -71.3466 283° West  Level FlightAware Approximate
03:47PM 42.7100 -71.1658 303° West 340 391 17,400  Level Boston Center
03:48PM 42.7364 -71.2981 285° West 340 391 19,100 1,980 Climbing Boston Center
03:50PM 42.7544 -71.4333 280° West 360 414 21,400 1,920 Climbing Boston Center
03:51PM 42.7639 -71.5692 275° West 360 414 23,000 1,680 Climbing Boston Center
03:52PM 42.7794 -71.7103 279° West 370 426 24,800 1,560 Climbing Boston Center
03:53PM 42.7947 -71.8517 278° West 375 432 26,200 1,380 Climbing Boston Center
03:53PM 42.8100 -71.9958 278° West 381 438 27,600 1,440 Climbing Boston Center
03:54PM 42.8253 -72.1458 278° West 391 450 29,100 1,260 Climbing Boston Center
03:56PM 42.8442 -72.2872 280° West 391 450 30,200 1,260 Climbing Boston Center
03:56PM 42.8611 -72.4344 279° West 391 450 31,600 900 Climbing Boston Center
03:57PM 42.8756 -72.5761 278° West 391 450 32,000 180 Climbing Boston Center
03:59PM 42.8814 -72.7233 273° West 386 444 32,000  Level Boston Center
04:00PM 42.8956 -72.8708 278° West 386 444 32,000  Level Boston Center
04:00PM 42.9181 -73.0042 283° West 393 452 32,000  Level Boston Center
04:01PM 42.9358 -73.1519 279° West 393 452 32,000  Level Boston Center
04:02PM 42.9472 -73.3053 276° West 398 458 32,000  Level Boston Center
04:03PM 42.9522 -73.4669 272° West 398 458 32,000  Level Boston Center
04:05PM 42.9675 -73.6147 278° West 398 458 32,000  Level Boston Center
04:05PM 42.9783 -73.7625 276° West 398 458 32,000  Level Boston Center
04:06PM 42.9869 -73.9161 274° West 403 464 32,000  Level Boston Center
04:07PM 42.9975 -74.0611 276° West 403 464 32,000  Level Boston Center
04:08PM 43.0078 -74.2089 275° West 403 464 32,000  Level Boston Center
04:09PM 43.0200 -74.3569 276° West 403 464 32,000  Level Boston Center
04:10PM 43.0256 -74.5050 273° West 403 464 32,000  Level Boston Center
04:11PM 43.0353 -74.6531 275° West 403 464 32,000  Level Boston Center
04:12PM 43.0450 -74.8011 275° West 403 464 32,000  Level Boston Center
04:13PM 43.0542 -74.9492 275° West 403 464 32,000  Level Boston Center
04:14PM 43.0617 -75.0803 275° West 403 464 32,000  Level Boston Center
04:15PM 43.0728 -75.2314 276° West 403 464 32,000  Level Boston Center
04:17PM 43.0828 -75.4139 274° West 403 464 32,000  Level Boston Center
04:18PM 43.0914 -75.5592 275° West 403 464 32,000  Level Boston Center
04:19PM 43.0994 -75.7133 274° West 403 464 32,000  Level Boston Center
04:20PM 43.1056 -75.8644 273° West 408 470 32,000  Level Boston Center
04:22PM 43.1219 -76.1653 274° West 419 482 32,000 -60 Level Cleveland Center
04:23PM 43.1300 -76.3214 274° West 419 482 31,900  Descending Cleveland Center
04:24PM 43.1356 -76.4747 273° West 419 482 32,000  Climbing Cleveland Center
04:25PM 43.1431 -76.6278 274° West 414 476 32,000  Level Cleveland Center
04:26PM 43.1506 -76.7953 274° West 414 476 32,000  Level Cleveland Center
04:27PM 43.1575 -76.9486 274° West 409 471 32,000  Level Cleveland Center
04:28PM 43.1644 -77.1019 274° West 409 471 32,000  Level Cleveland Center
04:29PM 43.1711 -77.2553 273° West 404 465 32,000  Level Cleveland Center
04:30PM 43.1772 -77.4058 273° West 404 465 32,000  Level Cleveland Center
04:31PM 43.1814 -77.5567 272° West 404 465 32,000  Level Cleveland Center
04:32PM 43.1869 -77.6931 273° West 404 465 32,000  Level Cleveland Center
04:33PM 43.1928 -77.8439 273° West 404 465 32,000  Level Cleveland Center
04:34PM 43.1961 -77.9947 272° West 404 465 32,000  Level Cleveland Center
04:35PM 43.2014 -78.1453 273° West 404 465 32,000  Level Cleveland Center
04:36PM 43.2067 -78.2933 273° West 404 465 32,000  Level Cleveland Center
04:37PM 43.2117 -78.4439 273° West 404 465 32,000  Level Cleveland Center
04:38PM 43.2183 -78.5947 274° West 404 465 32,000  Level Cleveland Center
04:39PM 43.2208 -78.7458 271° West 404 465 32,000  Level Cleveland Center
04:40PM 43.2167 -78.8833 268° West 400 460 32,000  Level Toronto Center
04:41PM 43.2167 -79.0333 270° West 400 460 32,000  Level Toronto Center
04:42PM 43.2167 -79.2000 270° West 410 472 32,000  Level Toronto Center
04:43PM 43.2333 -79.3333 280° West 410 472 32,000  Level Toronto Center
04:44PM 43.2333 -79.5000 270° West 400 460 32,000  Level Toronto Center
04:45PM 43.2333 -79.6500 270° West 400 460 32,000 600 Level Toronto Center
04:46PM 43.2333 -79.8000 270° West 390 449 33,200 1,200 Climbing Toronto Center
04:47PM 43.2333 -79.9500 270° West 380 437 34,500 960 Climbing Toronto Center
04:48PM 43.2333 -80.0833 270° West 380 437 35,200 660 Climbing Toronto Center
04:49PM 43.2333 -80.2333 270° West 380 437 35,900 360 Climbing Toronto Center
04:50PM 43.2500 -80.3667 280° West 380 437 36,000  Climbing Toronto Center
04:51PM 43.2500 -80.5333 270° West 380 437 36,000  Level Toronto Center
04:52PM 43.2500 -80.6667 270° West 370 426 36,000  Level Toronto Center
04:53PM 43.2500 -80.8000 270° West 370 426 36,000  Level Toronto Center
04:54PM 43.2333 -80.9333 260° West 370 426 36,000  Level Toronto Center
04:55PM 43.2333 -81.1000 270° West 380 437 36,000  Level Toronto Center
04:56PM 43.2500 -81.2333 280° West 380 437 36,000  Level Toronto Center
04:57PM 43.2500 -81.4000 270° West 380 437 36,000  Level Toronto Center
04:58PM 43.2500 -81.5333 270° West 380 437 36,000  Level Toronto Center
04:59PM 43.2500 -81.6667 270° West 380 437 36,000  Level Toronto Center
05:00PM 43.2500 -81.8333 270° West 380 437 36,000  Level Toronto Center
05:01PM 43.2333 -81.9667 260° West 380 437 36,000  Level Toronto Center
05:02PM 43.2500 -82.1000 280° West 380 437 36,000  Level Toronto Center
05:03PM 43.2500 -82.2500 270° West 380 437 36,000  Level Toronto Center
05:04PM 43.2500 -82.3833 270° West 380 437 36,000  Level Toronto Center
05:05PM 43.2500 -82.5333 270° West 380 437 36,000  Level Toronto Center
05:05PM 43.2561 -82.6756 273° West 384 442 36,000  Level Cleveland Center
05:06PM 43.2553 -82.8236 270° West 384 442 36,000  Level Cleveland Center
05:07PM 43.2544 -82.9692 270° West 384 442 36,000  Level Cleveland Center
05:08PM 43.2536 -83.1117 270° West 384 442 36,000  Level Cleveland Center
05:09PM 43.2522 -83.2625 269° West 389 448 36,000 60 Level Cleveland Center
05:10PM 43.2508 -83.4078 269° West 389 448 36,200 300 Climbing Cleveland Center
05:11PM 43.2517 -83.5419 271° West 389 448 36,700 360 Climbing Cleveland Center
05:12PM 43.2481 -83.6872 268° West 383 441 37,000 120 Climbing Cleveland Center
05:13PM 43.2481 -83.8383 270° West 383 441 37,000  Level Cleveland Center
05:14PM 43.2475 -84.0006 270° West 388 447 37,000  Level Cleveland Center
05:16PM 43.2431 -84.2394 269° West 399 459 37,000  Level Minneapolis Center
05:17PM 43.2333 -84.3333 262° West 400 460 37,000  Level Toronto Center
05:18PM 43.2333 -84.4833 270° West 400 460 37,000  Level Toronto Center
05:19PM 43.2167 -84.6167 260° West 400 460 37,000  Level Toronto Center
05:20PM 43.2167 -84.7833 270° West 400 460 37,000  Level Toronto Center
05:20PM 43.2344 -84.8747 285° West 393 452 37,000  Level Chicago Center
05:21PM 43.2311 -85.0206 268° West 387 445 37,000  Level Chicago Center
05:22PM 43.2283 -85.1636 269° West 381 438 37,000  Level Chicago Center
05:23PM 43.2250 -85.3078 268° West 381 438 37,000  Level Chicago Center
05:24PM 43.2217 -85.4814 269° West 381 438 37,000  Level Chicago Center
05:25PM 43.2169 -85.6292 268° West 383 441 37,000  Level Chicago Center
05:26PM 43.2133 -85.7728 268° West 388 447 37,000  Level Chicago Center
05:28PM 43.2094 -85.9197 268° West 393 452 37,000  Level Chicago Center
05:29PM 43.2050 -86.0661 268° West 393 452 37,000  Level Chicago Center
05:30PM 43.2000 -86.2425 268° West 393 452 37,000  Level Chicago Center
05:31PM 43.1950 -86.3869 267° West 386 444 37,000  Level Chicago Center
05:32PM 43.1906 -86.5342 268° West 389 448 37,000  Level Chicago Center
05:33PM 43.1858 -86.6775 267° West 383 441 37,000  Level Chicago Center
05:34PM 43.1803 -86.8219 267° West 381 438 37,000  Level Chicago Center
05:35PM 43.1736 -86.9939 267° West 379 436 37,000  Level Chicago Center
05:36PM 43.1669 -87.1369 266° West 378 435 37,000  Level Chicago Center
05:37PM 43.1622 -87.2781 267° West 376 433 37,000  Level Chicago Center
05:38PM 43.1553 -87.4389 267° West 368 423 37,000  Level Chicago Center
05:39PM 43.1486 -87.5797 266° West 369 425 37,000  Level Chicago Center
05:40PM 43.1428 -87.7214 267° West 370 426 37,000  Level Chicago Center
05:41PM 43.1367 -87.8600 267° West 365 420 37,000  Level Chicago Center
05:42PM 43.1297 -87.9989 266° West 363 418 37,000  Level Chicago Center
05:43PM 43.1236 -88.1383 267° West 364 419 37,000 -180 Level Chicago Center
05:44PM 43.1164 -88.3022 267° West 365 420 36,700 -540 Descending Chicago Center
05:45PM 43.1203 -88.4444 272° West 370 426 36,000 -360 Descending Chicago Center
05:46PM 43.1250 -88.5886 273° West 374 430 36,000  Level Chicago Center
05:47PM 43.1289 -88.7283 272° West 367 422 36,000  Level Chicago Center
05:48PM 43.1331 -88.8669 272° West 363 418 36,000  Level Chicago Center
05:49PM 43.1364 -89.0053 272° West 362 417 36,000  Level Chicago Center
05:50PM 43.1408 -89.1675 272° West 365 420 36,000  Level Chicago Center
05:51PM 43.1442 -89.3078 272° West 368 423 36,000  Level Chicago Center
05:52PM 43.1461 -89.4497 271° West 371 427 36,000  Level Chicago Center
05:53PM 43.1447 -89.5917 269° West 373 429 36,000  Level Chicago Center
05:54PM 43.1442 -89.7347 270° West 376 433 36,000 -60 Level Chicago Center
05:55PM 43.1458 -89.8781 271° West 376 433 35,900 -840 Descending Chicago Center
05:56PM 43.1444 -90.0417 269° West 367 422 34,300 -960 Descending Chicago Center
05:58PM 43.1433 -90.1792 269° West 363 418 34,000 -180 Descending Chicago Center
05:59PM 43.1431 -90.3186 270° West 354 407 34,000  Level Chicago Center
06:00PM 43.1422 -90.4508 270° West 351 404 34,000  Level Chicago Center
06:01PM 43.1425 -90.5806 270° West 345 397 34,000  Level Chicago Center
06:01PM 43.1422 -90.6831 270° West 344 396 34,000  Level Minneapolis Center
06:02PM 43.1411 -90.8131 269° West 344 396 34,000  Level Minneapolis Center
06:03PM 43.1406 -90.9431 270° West 345 397 34,000  Level Minneapolis Center
06:04PM 43.1392 -91.0731 269° West 346 398 34,000  Level Minneapolis Center
06:05PM 43.1378 -91.2303 269° West 348 400 34,000  Level Minneapolis Center
06:07PM 43.1372 -91.3611 270° West 349 402 34,000 -240 Level Minneapolis Center
06:08PM 43.1358 -91.4942 269° West 353 406 33,600 -960 Descending Minneapolis Center
06:09PM 43.1339 -91.6278 269° West 355 409 32,100 -1,440 Descending Minneapolis Center
06:10PM 43.1297 -91.7667 268° West 367 422 30,700 -1,080 Descending Minneapolis Center
06:11PM 43.1272 -91.9378 269° West 378 435 30,000 -360 Descending Minneapolis Center
06:12PM 43.1247 -92.0797 269° West 379 436 30,000  Level Minneapolis Center
06:13PM 43.1217 -92.2214 268° West 379 436 30,000  Level Minneapolis Center
06:14PM 43.1194 -92.3617 269° West 375 432 30,000  Level Minneapolis Center
06:15PM 43.1161 -92.5039 268° West 378 435 30,000  Level Minneapolis Center
06:16PM 43.1114 -92.6736 268° West 378 435 30,000  Level Minneapolis Center
06:17PM 43.1086 -92.8158 269° West 378 435 30,000  Level Minneapolis Center
06:18PM 43.1050 -92.9569 268° West 377 434 30,000  Level Minneapolis Center
06:19PM 43.1014 -93.1008 268° West 381 438 30,000  Level Minneapolis Center
06:20PM 43.0967 -93.2433 267° West 378 435 30,000  Level Minneapolis Center
06:21PM 43.0892 -93.3872 266° West 381 438 30,000  Level Minneapolis Center
06:22PM 43.0728 -93.5589 263° West 381 438 30,000  Level Minneapolis Center
06:23PM 43.0575 -93.7039 262° West 385 443 30,000  Level Minneapolis Center
06:24PM 43.0458 -93.8464 264° West 384 442 30,000  Level Minneapolis Center
06:25PM 43.0314 -93.9906 262° West 387 445 30,000 360 Level Minneapolis Center
06:26PM 43.0175 -94.1333 262° West 385 443 30,800 960 Climbing Minneapolis Center
06:27PM 43.0050 -94.2753 263° West 380 437 32,000 540 Climbing Minneapolis Center
06:28PM 42.9892 -94.4444 263° West 378 435 32,000  Level Minneapolis Center
06:29PM 42.9750 -94.5878 262° West 381 438 32,000  Level Minneapolis Center
06:30PM 42.9578 -94.7303 261° West 379 436 32,000  Level Minneapolis Center
06:31PM 42.9436 -94.8739 262° West 383 441 32,000  Level Minneapolis Center
06:32PM 42.9269 -95.0183 261° West 384 442 32,000  Level Minneapolis Center
06:33PM 42.9119 -95.1622 262° West 383 441 32,000  Level Minneapolis Center
06:34PM 42.8967 -95.3033 262° West 379 436 32,000  Level Minneapolis Center
06:35PM 42.8775 -95.4725 261° West 376 433 32,000  Level Minneapolis Center
06:36PM 42.8614 -95.6147 261° West 378 435 32,000  Level Minneapolis Center
06:37PM 42.8458 -95.7567 262° West 380 437 32,000  Level Minneapolis Center
06:38PM 42.8292 -95.8981 261° West 379 436 32,000  Level Minneapolis Center
06:39PM 42.8125 -96.0389 261° West 377 434 32,000  Level Minneapolis Center
06:40PM 42.7953 -96.1833 261° West 382 440 32,000  Level Minneapolis Center
06:41PM 42.7783 -96.3275 261° West 385 443 32,000  Level Minneapolis Center
06:42PM 42.7614 -96.4728 261° West 388 447 32,000  Level Minneapolis Center
06:43PM 42.7397 -96.6436 260° West 385 443 32,000  Level Minneapolis Center
06:45PM 42.7225 -96.7869 261° West 384 442 32,000  Level Minneapolis Center
06:46PM 42.7053 -96.9314 261° West 386 444 32,000  Level Minneapolis Center
06:47PM 42.6872 -97.0769 260° West 389 448 32,000  Level Minneapolis Center
06:48PM 42.6739 -97.1778 260° West 383 441 32,000  Level Minneapolis Center
06:49PM 42.6514 -97.3522 260° West 389 448 32,000  Level Minneapolis Center
06:50PM 42.6281 -97.5256 260° West 390 449 32,000  Level Minneapolis Center
06:51PM 42.6089 -97.6708 260° West 392 451 32,000  Level Minneapolis Center
06:52PM 42.5900 -97.8164 260° West 392 451 32,000  Level Minneapolis Center
06:53PM 42.5672 -97.9808 259° West 394 453 32,000  Level Minneapolis Center
06:54PM 42.5478 -98.1264 260° West 393 452 32,000  Level Minneapolis Center
06:55PM 42.5286 -98.2728 260° West 395 455 32,000  Level Minneapolis Center
06:56PM 42.5081 -98.4189 259° West 395 455 32,000  Level Minneapolis Center
06:57PM 42.4883 -98.5642 260° West 394 453 32,000  Level Minneapolis Center
06:58PM 42.4678 -98.7092 259° West 394 453 32,000  Level Minneapolis Center
06:59PM 42.4353 -98.8794 256° West 391 450 32,000  Level Minneapolis Center
07:00PM 42.4106 -99.0233 257° West 393 452 32,000  Level Minneapolis Center
07:01PM 42.3844 -99.1667 256° West 393 452 32,000  Level Minneapolis Center
07:02PM 42.3583 -99.3097 256° West 393 452 32,000  Level Minneapolis Center
07:03PM 42.3328 -99.4528 256° West 394 453 32,000  Level Denver Center
07:04PM 42.3061 -99.5936 256° West 388 447 32,000  Level Denver Center
07:05PM 42.2758 -99.7561 256° West 387 445 32,000  Level Denver Center
07:06PM 42.2489 -99.8900 255° West 386 444 32,000  Level Denver Center
07:07PM 42.2197 -100.0500 256° West 393 452 32,000  Level Denver Center
07:08PM 42.1936 -100.1861 256° West 393 452 32,000  Level Denver Center
07:09PM 42.1633 -100.3436 256° West 391 450 32,000  Level Denver Center
07:10PM 42.1375 -100.4794 256° West 390 449 32,000  Level Denver Center
07:11PM 42.1064 -100.6358 255° West 389 448 32,000  Level Denver Center
07:12PM 42.0808 -100.7683 255° West 383 441 32,000  Level Denver Center
07:13PM 42.0553 -100.9017 256° West 385 443 32,000 -540 Level Denver Center
07:14PM 42.0483 -101.0639 267° West 397 457 30,900 -1,020 Descending Denver Center
07:15PM 42.0708 -101.2056 282° West 405 466 30,000 -480 Descending Denver Center
07:16PM 42.0950 -101.3672 281° West 397 457 30,000  Level Denver Center
07:18PM 42.1153 -101.5072 281° West 398 458 30,000  Level Denver Center
07:19PM 42.1400 -101.6744 281° West 407 468 30,000  Level Denver Center
07:20PM 42.1611 -101.8197 281° West 412 474 30,000  Level Denver Center
07:21PM 42.1625 -101.9906 271° West 407 468 30,000  Level Denver Center
07:22PM 42.1314 -102.1289 253° West 401 461 30,000  Level Denver Center
07:23PM 42.0989 -102.2797 254° West 405 466 30,000  Level Denver Center
07:24PM 42.0644 -102.4397 254° West 400 460 30,000  Level Denver Center
07:25PM 42.0325 -102.5803 253° West 406 467 30,000  Level Denver Center
07:26PM 42.0031 -102.7175 254° West 401 461 30,000  Level Denver Center
07:27PM 41.9669 -102.8794 253° West 404 465 30,000  Level Denver Center
07:28PM 41.9339 -103.0211 253° West 413 475 30,000  Level Denver Center
07:29PM 41.8961 -103.1886 253° West 418 481 30,000  Level Denver Center
07:30PM 41.8639 -103.3306 253° West 416 479 30,000  Level Denver Center
07:31PM 41.8258 -103.4961 253° West 415 478 30,000  Level Denver Center
07:32PM 41.7917 -103.6381 252° West 418 481 30,000 720 Level Denver Center
07:33PM 41.7528 -103.8036 253° West 415 478 31,600 1,500 Climbing Denver Center
07:34PM 41.7189 -103.9467 252° West 420 483 33,100 1,260 Climbing Denver Center
07:35PM 41.6864 -104.0881 253° West 417 480 34,300 1,380 Climbing Denver Center
07:36PM 41.6492 -104.2453 252° West 394 453 36,000 780 Climbing Denver Center
07:37PM 41.6189 -104.3681 252° West 369 425 36,000  Level Denver Center
07:38PM 41.5833 -104.5217 253° West 384 442 36,000  Level Denver Center
07:39PM 41.5517 -104.6514 252° West 384 442 36,000  Level Denver Center
07:40PM 41.5083 -104.8253 252° West 387 445 36,000  Level Denver Center
07:41PM 41.4769 -104.9550 252° West 386 444 36,000  Level Denver Center
07:42PM 41.4400 -105.1056 252° West 383 441 36,000  Level Denver Center
07:43PM 41.4083 -105.2333 252° West 380 437 36,000  Level Denver Center
07:45PM 41.3714 -105.3819 252° West 379 436 36,000  Level Denver Center
07:46PM 41.3383 -105.5086 251° West 379 436 36,000  Level Denver Center
07:47PM 41.3014 -105.6583 252° West 381 438 36,000  Level Denver Center
07:48PM 41.2681 -105.7847 251° West 379 436 36,000  Level Denver Center
07:49PM 41.2353 -105.9119 251° West 380 437 36,000  Level Denver Center
07:50PM 41.1978 -106.0628 252° West 384 442 36,000  Level Denver Center
07:51PM 41.1608 -106.2044 251° West 382 440 36,000  Level Denver Center
07:52PM 41.1275 -106.3331 251° West 384 442 36,000  Level Denver Center
07:53PM 41.0864 -106.4831 250° West 388 447 36,000  Level Denver Center
07:54PM 41.0531 -106.6128 251° West 389 448 36,000  Level Denver Center
07:55PM 41.0131 -106.7661 251° West 395 455 36,000  Level Denver Center
07:56PM 40.9775 -106.8950 250° West 392 451 36,000  Level Denver Center
07:57PM 40.9422 -107.0269 251° West 396 456 36,000  Level Denver Center
07:58PM 40.9011 -107.1797 250° West 397 457 36,000  Level Denver Center
07:59PM 40.8658 -107.3117 251° West 398 458 36,000  Level Denver Center
08:00PM 40.8233 -107.4644 250° West 398 458 36,000  Level Denver Center
08:01PM 40.7878 -107.5981 251° West 402 463 36,000  Level Denver Center
08:02PM 40.7450 -107.7531 250° West 403 464 36,000  Level Denver Center
08:03PM 40.7056 -107.8944 250° West 402 463 36,000  Level Denver Center
08:04PM 40.6686 -108.0267 250° West 401 461 36,000  Level Denver Center
08:05PM 40.6383 -108.1358 250° West 400 460 36,000  Level Denver Center
08:06PM 40.5883 -108.3086 249° West 399 459 36,000  Level Denver Center
08:07PM 40.5456 -108.4619 250° West 400 460 36,000  Level Denver Center
08:08PM 40.5083 -108.5925 249° West 400 460 36,000  Level Denver Center
08:09PM 40.4636 -108.7447 249° West 402 463 36,000  Level Denver Center
08:10PM 40.4264 -108.8772 250° West 404 465 36,000  Level Denver Center
08:11PM 40.3811 -109.0317 249° West 407 468 36,000  Level Denver Center
08:12PM 40.3422 -109.1656 249° West 412 474 36,000  Level Denver Center
08:13PM 40.2958 -109.3225 249° West 414 476 36,000  Level Denver Center
08:15PM 40.2494 -109.4811 249° West 418 481 36,000  Level Salt Lake Center
08:16PM 40.2081 -109.6172 248° West 422 486 36,000  Level Salt Lake Center
08:17PM 40.1672 -109.7533 249° West 421 484 36,000  Level Salt Lake Center
08:18PM 40.1197 -109.9136 249° West 424 488 36,000  Level Salt Lake Center
08:19PM 40.0783 -110.0519 249° West 426 490 36,000  Level Salt Lake Center
08:20PM 40.0300 -110.2136 249° West 428 493 36,000  Level Salt Lake Center
08:21PM 39.9864 -110.3536 248° West 433 498 36,000  Level Salt Lake Center
08:22PM 39.9367 -110.5186 249° West 437 503 36,000  Level Salt Lake Center
08:23PM 39.8931 -110.6608 248° West 440 506 36,000  Level Salt Lake Center
08:24PM 39.8494 -110.8042 248° West 444 511 36,000  Level Salt Lake Center
08:25PM 39.7967 -110.9708 248° West 446 513 36,000  Level Salt Lake Center
08:26PM 39.7517 -111.1153 248° West 448 516 36,000  Level Salt Lake Center
08:27PM 39.6978 -111.2833 247° West 451 519 36,000  Level Salt Lake Center
08:28PM 39.6489 -111.4425 248° West 455 524 36,000  Level Salt Lake Center
08:29PM 39.6011 -111.5933 248° West 454 522 36,000  Level Salt Lake Center
08:30PM 39.5511 -111.7425 247° West 451 519 36,000  Level Salt Lake Center
08:31PM 39.5036 -111.8939 248° West 453 521 36,000  Level Salt Lake Center
08:32PM 39.4547 -112.0450 247° West 454 522 36,000  Level Salt Lake Center
08:33PM 39.4067 -112.1953 248° West 452 520 36,000  Level Salt Lake Center
08:34PM 39.3575 -112.3431 247° West 450 518 36,000  Level Salt Lake Center
08:35PM 39.3078 -112.4919 247° West 451 519 36,000  Level Salt Lake Center
08:36PM 39.2672 -112.6586 253° West 451 519 36,000  Level Salt Lake Center
08:37PM 39.2317 -112.8108 253° West 448 516 36,000  Level Salt Lake Center
08:38PM 39.1967 -112.9678 254° West 453 521 36,000  Level Salt Lake Center
08:39PM 39.1547 -113.1539 254° West 453 521 36,000  Level Salt Lake Center
08:40PM 39.1183 -113.3094 253° West 453 521 36,000  Level Salt Lake Center
08:41PM 39.0828 -113.4644 254° West 454 522 36,000  Level Salt Lake Center
08:42PM 39.0458 -113.6183 253° West 453 521 36,000  Level Salt Lake Center
08:43PM 39.0100 -113.7731 253° West 454 522 36,000  Level Salt Lake Center
08:44PM 38.9733 -113.9278 253° West 454 522 36,000  Level Salt Lake Center
08:45PM 38.9364 -114.0814 253° West 453 521 36,000  Level Salt Lake Center
08:46PM 38.9008 -114.2336 253° West 448 516 36,000  Level Salt Lake Center
08:47PM 38.8556 -114.4178 253° West 452 520 36,000  Level Salt Lake Center
08:48PM 38.8186 -114.5714 253° West 453 521 36,000  Level Salt Lake Center
08:49PM 38.7806 -114.7236 252° West 452 520 36,000  Level Salt Lake Center
08:50PM 38.7422 -114.8772 252° West 453 521 36,000  Level Salt Lake Center
08:51PM 38.7028 -115.0319 252° West 457 526 36,000  Level Salt Lake Center
08:52PM 38.6639 -115.1839 252° West 456 525 36,000  Level Salt Lake Center
08:53PM 38.6256 -115.3367 252° West 453 521 36,000  Level Salt Lake Center
08:55PM 38.5822 -115.5164 253° West 449 517 36,000  Level Salt Lake Center
08:56PM 38.5436 -115.6708 252° West 456 525 36,000  Level Salt Lake Center
08:57PM 38.5042 -115.8250 252° West 457 526 36,000  Level Salt Lake Center
08:58PM 38.4644 -115.9792 252° West 457 526 36,000  Level Salt Lake Center
08:59PM 38.4236 -116.1328 251° West 458 527 36,000  Level Salt Lake Center
08:59PM 38.4075 -116.1953 252° West 459 528 36,000  Level Oakland Center
09:00PM 38.3669 -116.3503 252° West 462 532 36,000  Level Oakland Center
09:01PM 38.3422 -116.4436 251° West 463 533 36,000  Level Salt Lake Center
09:01PM 38.3261 -116.5056 252° West 461 531 36,000  Level Oakland Center
09:02PM 38.2844 -116.6619 251° West 466 536 36,000  Level Oakland Center
09:03PM 38.2433 -116.8169 251° West 463 533 36,000  Level Oakland Center
09:04PM 38.2103 -116.9403 251° West 462 532 36,000  Level Salt Lake Center
09:05PM 38.1803 -117.0978 256° West 462 532 36,000  Level Salt Lake Center
09:06PM 38.1592 -117.2614 261° West 453 521 36,000  Level Salt Lake Center
09:06PM 38.1533 -117.3050 260° West 450 518 36,000  Level Oakland Center
09:07PM 38.1325 -117.4592 260° West 449 517 36,000  Level Oakland Center
09:08PM 38.1125 -117.6150 261° West 449 517 36,000  Level Oakland Center
09:09PM 38.0925 -117.7708 261° West 448 516 36,000  Level Oakland Center
09:10PM 38.0731 -117.9272 261° West 447 514 36,000  Level Oakland Center
09:11PM 38.0514 -118.0819 260° West 446 513 36,000  Level Oakland Center
09:12PM 38.0294 -118.2367 260° West 446 513 36,000  Level Oakland Center
09:13PM 38.0086 -118.3925 260° West 446 513 36,000  Level Oakland Center
09:14PM 37.9875 -118.5503 260° West 451 519 36,000  Level Oakland Center
09:15PM 37.9639 -118.7044 259° West 445 512 36,000  Level Oakland Center
09:16PM 37.9456 -118.8561 261° West 436 502 36,000  Level Oakland Center
09:17PM 37.9233 -119.0081 260° West 437 503 36,000  Level Oakland Center
09:18PM 37.8978 -119.1836 260° West 438 504 36,000  Level Oakland Center
09:19PM 37.8761 -119.3339 260° West 435 501 36,000 -300 Level Oakland Center
09:20PM 37.8553 -119.4839 260° West 432 497 35,500 -960 Descending Oakland Center
09:21PM 37.8333 -119.6294 259° West 424 488 34,100 -1,380 Descending Oakland Center
09:22PM 37.8108 -119.7797 259° West 431 496 32,700 -1,260 Descending Oakland Center
09:23PM 37.7886 -119.9308 260° West 435 501 31,600 -1,080 Descending Oakland Center
09:24PM 37.7647 -120.0817 259° West 437 503 30,600 -840 Descending Oakland Center
09:25PM 37.7419 -120.2297 259° West 431 496 30,000 -480 Descending Oakland Center
09:26PM 37.7194 -120.3769 259° West 427 491 29,700 -1,140 Descending Oakland Center
09:27PM 37.6964 -120.5242 259° West 427 491 27,700 -2,220 Descending Oakland Center
09:28PM 37.6731 -120.6667 258° West 416 479 25,300 -2,460 Descending Oakland Center
09:29PM 37.6667 -120.7500 264° West 401 461 24,000 -2,400 Descending Northern Cal TRACON
09:30PM 37.6333 -120.8833 253° West 381 438 21,700 -2,100 Descending Northern Cal TRACON
09:31PM 37.6167 -121.0000 260° West 363 418 19,800 -1,980 Descending Northern Cal TRACON
09:32PM 37.6000 -121.1333 261° West 344 396 17,800 -1,920 Descending Northern Cal TRACON
09:33PM 37.6000 -121.2333 270° West 329 379 16,000 -1,860 Descending Northern Cal TRACON
09:34PM 37.5833 -121.3500 260° West 342 394 14,100 -2,040 Descending Northern Cal TRACON
09:35PM 37.5667 -121.4833 261° West 343 395 11,800 -1,500 Descending Northern Cal TRACON
09:36PM 37.5333 -121.6000 250° West 341 392 11,000 -780 Descending Northern Cal TRACON
09:37PM 37.5167 -121.7000 258° West 299 344 10,300 -1,200 Descending Northern Cal TRACON
09:38PM 37.5000 -121.8000 258° West 289 333 8,700 -1,260 Descending Northern Cal TRACON
09:39PM 37.4833 -121.9000 258° West 274 315 7,800 -1,200 Descending Northern Cal TRACON
09:40PM 37.5000 -121.9833 284° West 255 293 6,400 -1,140 Descending Northern Cal TRACON
09:41PM 37.5333 -122.0667 297° West 243 280 5,600 -960 Descending Northern Cal TRACON
09:42PM 37.5500 -122.1500 284° West 216 249 4,500 -1,020 Descending Northern Cal TRACON